Terminal Aerodrome Forecast
Issued by NWS

Current Version | Previous Version | Text Only | Print | Product List | Glossary Off
Versions: 1 2 3 4 5 6 7 8 9 10 11 12 13 14 15 16 17

627
FTUS41 KPBZ 050900 AAA
TAFHLG
TAF AMD
KHLG 050900Z 0509/0606 30007KT P6SM OVC040
     FM051400 27008KT P6SM SCT050=

USA.gov is the U.S. government's official web portal to all federal, state and local government web resources and services.